Time;durP1;ratioP1;P1;durP2;ratioP2;P2;SDS_P1;SDS_P2;PMS_P1;PMS_P2;Temp;Humidity;BMP_temperature;BMP_pressure;BME280_temperature;BME280_humidity;BME280_pressure;Samples;Min_cycle;Max_cycle;Signal;HPM_P1;HPM_P2
2021/12/25 00:00:02;;;;;;;;;;;;;;;26.68;22.16;96097.59;172338;28;962;-48
2021/12/25 00:00:08;;;;;;;;;;;;;;;26.70;22.12;96100.91;171815;28;1018;-47
2021/12/25 00:00:14;;;;;;;;;;;;;;;26.70;21.98;96107.03;171691;28;865;-49
2021/12/25 00:00:20;;;;;;;;;;;;;;;26.71;22.05;96100.75;171756;28;1146;-47
2021/12/25 00:00:25;;;;;;;;;;;;;;;26.71;21.95;96102.59;172566;28;897;-47
2021/12/25 00:00:30;;;;;;;;;;;;;;;26.70;22.05;96103.53;172484;28;1133;-48
2021/12/25 00:00:35;;;;;;;;;;;;;;;26.75;22.04;96105.72;172473;28;829;-47
2021/12/25 00:00:41;;;;;;;;;;;;;;;26.75;22.21;96105.72;172572;28;790;-49
2021/12/25 00:00:47;;;;;;;;;;;;;;;26.75;22.23;96109.19;171819;28;862;-47
2021/12/25 00:00:52;;;;;;;;;;;;;;;26.75;22.07;96109.19;172099;28;864;-47
2021/12/25 00:00:58;;;;;;;;;;;;;;;26.75;22.21;96106.53;171944;28;1019;-48
2021/12/25 00:01:04;;;;;;;;;;;;;;;26.74;21.93;96104.88;172235;28;1077;-48
2021/12/25 00:01:09;;;;;;;;;;;;;;;26.68;22.21;96109.00;172608;28;1164;-48
2021/12/25 00:01:15;;;;;;;;;;;;;;;26.67;21.98;96104.72;172464;28;868;-48
2021/12/25 00:01:21;;;;;;;;;;;;;;;26.66;22.08;96112.81;172457;28;1199;-46
2021/12/25 00:01:26;;;;;;;;;;;;;;;26.66;22.16;96108.34;172665;28;802;-49
2021/12/25 00:01:32;;;;;;;;;;;;;;;26.68;22.29;96110.81;172304;28;1082;-48
2021/12/25 00:01:40;;;;;;;;;;;;;;;26.68;22.12;96105.53;172443;28;849;-48
2021/12/25 00:01:45;;;;;;;;;;;;;;;26.68;22.15;96105.53;172313;28;893;-48
2021/12/25 00:01:51;;;;;;;;;;;;;;;26.65;22.24;96106.69;172558;28;807;-48
2021/12/25 00:01:56;;;;;;;;;;;;;;;26.66;22.32;96111.00;172499;28;1129;-48
2021/12/25 00:02:05;;;;;;;;;;;;;;;26.67;22.30;96110.00;171989;28;1809;-48
2021/12/25 00:02:10;;;;;;;;;;;;;;;26.70;22.16;96106.19;171774;28;943;-48
2021/12/25 00:02:15;;;;;;;;;;;;;;;26.70;22.47;96106.19;171631;28;1102;-47
2021/12/25 00:02:20;;;;;;;;;;;;;;;26.68;22.30;96110.81;172508;28;822;-49
2021/12/25 00:02:27;;;;;;;;;;;;;;;26.68;22.28;96106.34;172202;28;1243;-49
2021/12/25 00:02:34;;;;;;;;;;;;;;;26.65;22.27;96106.69;172289;28;900;-48
2021/12/25 00:02:39;;;;;;;;;;;;;;;26.62;22.21;96111.47;172527;28;1113;-48
2021/12/25 00:02:44;;;;;;;;;;;;;;;26.61;22.19;96109.81;172336;28;916;-47
2021/12/25 00:02:49;;;;;;;;;;;;;;;26.57;22.38;96108.50;172479;28;1412;-48
2021/12/25 00:02:55;;;;;;;;;;;;;;;26.56;22.22;96109.50;172466;28;1395;-48
2021/12/25 00:03:00;;;;;;;;;;;;;;;26.59;22.28;96111.81;172360;28;1081;-48
2021/12/25 00:03:05;;;;;;;;;;;;;;;26.61;22.45;96115.09;172515;28;1003;-50
2021/12/25 00:03:10;;;;;;;;;;;;;;;26.57;22.42;96109.31;172455;28;1353;-46
2021/12/25 00:03:16;;;;;;;;;;;;;;;26.58;22.28;96110.16;172357;28;1039;-47
2021/12/25 00:03:21;;;;;;;;;;;;;;;26.61;22.09;96108.00;172445;28;821;-49
2021/12/25 00:03:26;;;;;;;;;;;;;;;26.63;22.19;96108.69;172397;28;1474;-48
2021/12/25 00:03:32;;;;;;;;;;;;;;;26.64;22.04;96115.63;171895;28;893;-48
2021/12/25 00:03:37;;;;;;;;;;;;;;;26.63;22.38;96107.84;171611;28;4283;-49
2021/12/25 00:03:42;;;;;;;;;;;;;;;26.66;22.06;96110.16;171869;28;837;-47
2021/12/25 00:03:48;;;;;;;;;;;;;;;26.62;22.40;96111.47;172019;28;1306;-47
2021/12/25 00:03:54;;;;;;;;;;;;;;;26.60;22.31;96110.81;172429;28;884;-49
2021/12/25 00:03:59;;;;;;;;;;;;;;;26.58;22.01;96108.31;172561;28;1116;-49
2021/12/25 00:04:04;;;;;;;;;;;;;;;26.57;22.14;96109.31;172511;28;1188;-47
2021/12/25 00:04:10;;;;;;;;;;;;;;;26.56;22.14;96112.13;172224;28;1330;-47
2021/12/25 00:04:15;;;;;;;;;;;;;;;26.56;22.17;96110.31;172342;28;1172;-48
2021/12/25 00:04:20;;;;;;;;;;;;;;;26.58;22.46;96104.88;172605;28;860;-48
2021/12/25 00:04:25;;;;;;;;;;;;;;;26.55;22.36;96111.31;172459;28;1160;-48
2021/12/25 00:04:31;;;;;;;;;;;;;;;26.55;22.55;96111.31;172653;28;1975;-47
2021/12/25 00:04:36;;;;;;;;;;;;;;;26.56;22.22;96109.50;172644;28;880;-48
2021/12/25 00:04:41;;;;;;;;;;;;;;;26.58;22.44;96110.97;172537;28;1152;-47
2021/12/25 00:04:47;;;;;;;;;;;;;;;26.56;22.26;96107.66;172668;28;912;-47
2021/12/25 00:04:52;;;;;;;;;;;;;;;26.60;22.13;96110.81;172436;28;1164;-48
2021/12/25 00:04:57;;;;;;;;;;;;;;;26.60;22.34;96108.16;172498;28;822;-49
2021/12/25 00:05:03;;;;;;;;;;;;;;;26.61;22.12;96110.63;172533;28;1132;-47
2021/12/25 00:05:08;;;;;;;;;;;;;;;26.62;22.23;96112.31;172571;28;1052;-48
2021/12/25 00:05:14;;;;;;;;;;;;;;;26.60;22.47;96108.16;172519;28;1172;-47
2021/12/25 00:05:20;;;;;;;;;;;;;;;26.63;22.18;96113.16;172536;28;996;-48
2021/12/25 00:05:25;;;;;;;;;;;;;;;26.66;22.18;96104.88;172505;28;1093;-49
2021/12/25 00:05:30;;;;;;;;;;;;;;;26.67;22.19;96104.72;172698;28;849;-48
2021/12/25 00:05:36;;;;;;;;;;;;;;;26.69;22.08;96108.00;172512;28;1077;-48
2021/12/25 00:05:41;;;;;;;;;;;;;;;26.71;22.09;96110.50;172653;28;881;-48
2021/12/25 00:05:49;;;;;;;;;;;;;;;26.66;22.07;96116.28;172503;28;904;-48
2021/12/25 00:05:55;;;;;;;;;;;;;;;26.61;22.07;96112.47;172441;28;949;-48
2021/12/25 00:06:00;;;;;;;;;;;;;;;26.58;22.42;96115.44;172485;28;1137;-47
2021/12/25 00:06:06;;;;;;;;;;;;;;;26.60;22.18;96108.16;172473;28;802;-46
2021/12/25 00:06:11;;;;;;;;;;;;;;;26.62;22.26;96114.09;172287;28;943;-48
2021/12/25 00:06:16;;;;;;;;;;;;;;;26.63;22.17;96107.84;172481;28;533;-48
2021/12/25 00:06:21;;;;;;;;;;;;;;;26.65;22.37;96113.81;172483;28;1019;-48
2021/12/25 00:06:27;;;;;;;;;;;;;;;26.67;22.12;96107.34;172651;28;1189;-48
2021/12/25 00:06:32;;;;;;;;;;;;;;;26.66;22.39;96107.53;172632;28;802;-48
2021/12/25 00:06:37;;;;;;;;;;;;;;;26.70;22.28;96108.84;172280;28;1098;-48
2021/12/25 00:06:42;;;;;;;;;;;;;;;26.66;22.20;96107.53;172112;28;1289;-48
2021/12/25 00:06:48;;;;;;;;;;;;;;;26.64;22.17;96115.63;171704;28;1452;-48
2021/12/25 00:06:53;;;;;;;;;;;;;;;26.64;22.34;96114.78;171457;28;1476;-48
2021/12/25 00:06:58;;;;;;;;;;;;;;;26.65;22.31;96106.69;172044;28;1054;-48
2021/12/25 00:07:03;;;;;;;;;;;;;;;26.64;22.36;96114.78;172326;28;1038;-48
2021/12/25 00:07:08;;;;;;;;;;;;;;;26.63;22.39;96113.16;172546;28;1043;-48
2021/12/25 00:07:14;;;;;;;;;;;;;;;26.61;22.07;96112.47;172412;28;1232;-47
2021/12/25 00:07:19;;;;;;;;;;;;;;;26.59;22.00;96109.97;172331;28;877;-49
2021/12/25 00:07:24;;;;;;;;;;;;;;;26.59;22.32;96111.81;172196;28;1176;-49
2021/12/25 00:07:29;;;;;;;;;;;;;;;26.55;22.48;96110.50;172176;28;1007;-47
2021/12/25 00:07:34;;;;;;;;;;;;;;;26.55;22.21;96110.50;172301;28;945;-47
2021/12/25 00:07:40;;;;;;;;;;;;;;;26.51;22.61;96109.13;172167;28;4308;-47
2021/12/25 00:07:45;;;;;;;;;;;;;;;26.55;22.48;96115.78;172553;28;1098;-47
2021/12/25 00:07:50;;;;;;;;;;;;;;;26.56;22.21;96120.88;172249;28;1031;-48
2021/12/25 00:07:55;;;;;;;;;;;;;;;26.56;22.45;96117.44;171947;28;1592;-49
2021/12/25 00:08:00;;;;;;;;;;;;;;;26.61;22.19;96112.47;172243;28;1197;-48
2021/12/25 00:08:06;;;;;;;;;;;;;;;26.60;22.13;96113.44;171799;28;983;-48
2021/12/25 00:08:11;;;;;;;;;;;;;;;26.56;22.46;96112.97;172182;28;1146;-47
2021/12/25 00:08:16;;;;;;;;;;;;;;;26.60;22.19;96111.63;172128;28;944;-48
2021/12/25 00:08:25;;;;;;;;;;;;;;;26.57;22.19;96113.78;172273;28;1002;-48
2021/12/25 00:08:33;;;;;;;;;;;;;;;26.63;22.14;96113.97;172428;28;814;-48
2021/12/25 00:08:38;;;;;;;;;;;;;;;26.64;22.04;96112.16;172574;28;751;-48
2021/12/25 00:08:43;;;;;;;;;;;;;;;26.67;22.31;96110.00;172588;28;937;-46
2021/12/25 00:08:48;;;;;;;;;;;;;;;26.70;22.25;96114.97;172177;28;917;-47
2021/12/25 00:08:54;;;;;;;;;;;;;;;26.69;22.22;96110.66;172689;28;743;-47
2021/12/25 00:08:59;;;;;;;;;;;;;;;26.71;22.12;96107.88;172406;28;1389;-47
2021/12/25 00:09:04;;;;;;;;;;;;;;;26.64;22.27;96115.63;171434;28;1405;-49
2021/12/25 00:09:09;;;;;;;;;;;;;;;26.61;22.13;96115.94;171869;28;1584;-48
2021/12/25 00:09:14;;;;;;;;;;;;;;;26.66;21.98;96120.75;172233;28;813;-47
2021/12/25 00:09:20;;;;;;;;;;;;;;;26.61;22.20;96115.94;172442;28;1117;-48
2021/12/25 00:09:25;;;;;;;;;;;;;;;26.59;22.15;96112.63;172588;28;643;-47
2021/12/25 00:09:30;;;;;;;;;;;;;;;26.60;22.39;96113.44;172039;28;1584;-48
2021/12/25 00:09:35;;;;;;;;;;;;;;;26.59;22.03;96122.38;172062;28;1037;-47
2021/12/25 00:09:40;;;;;;;;;;;;;;;26.62;22.26;96114.09;172684;28;829;-47
2021/12/25 00:09:46;;;;;;;;;;;;;;;26.64;22.33;96114.78;172473;28;1101;-47
2021/12/25 00:09:51;;;;;;;;;;;;;;;26.65;22.19;96117.28;172579;28;782;-48
2021/12/25 00:09:57;;;;;;;;;;;;;;;26.64;22.36;96115.63;172412;28;971;-48
2021/12/25 00:10:03;;;;;;;;;;;;;;;26.66;22.26;96112.81;172427;28;1152;-47
2021/12/25 00:10:09;;;;;;;;;;;;;;;26.71;22.12;96107.88;172679;28;1252;-47
2021/12/25 00:10:14;;;;;;;;;;;;;;;26.73;21.89;96113.00;172357;28;1096;-48
2021/12/25 00:10:19;;;;;;;;;;;;;;;26.72;21.98;96112.16;172326;28;1121;-49
2021/12/25 00:10:25;;;;;;;;;;;;;;;26.71;21.98;96121.09;172613;28;805;-48
2021/12/25 00:10:32;;;;;;;;;;;;;;;26.65;22.07;96111.97;172492;28;1031;-47
2021/12/25 00:10:37;;;;;;;;;;;;;;;26.58;22.35;96110.97;172620;28;888;-48
2021/12/25 00:10:42;;;;;;;;;;;;;;;26.55;22.26;96115.78;172339;28;916;-47
2021/12/25 00:10:50;;;;;;;;;;;;;;;26.57;22.38;96114.59;172643;28;610;-47
2021/12/25 00:10:55;;;;;;;;;;;;;;;26.62;22.14;96111.47;172514;28;1102;-48
2021/12/25 00:11:01;;;;;;;;;;;;;;;26.63;22.33;96113.16;172543;28;1129;-47
2021/12/25 00:11:07;;;;;;;;;;;;;;;26.61;22.13;96110.63;172541;28;1070;-48
2021/12/25 00:11:13;;;;;;;;;;;;;;;26.58;22.40;96116.25;172453;28;876;-48
2021/12/25 00:11:18;;;;;;;;;;;;;;;26.59;22.17;96111.81;172417;28;1057;-48
2021/12/25 00:11:23;;;;;;;;;;;;;;;26.57;22.47;96111.97;172566;28;506;-48
2021/12/25 00:11:28;;;;;;;;;;;;;;;26.61;22.11;96115.94;172493;28;1113;-48
2021/12/25 00:11:34;;;;;;;;;;;;;;;26.63;22.12;96118.44;172438;28;782;-49
2021/12/25 00:11:39;;;;;;;;;;;;;;;26.62;22.39;96112.31;172143;28;4211;-47
2021/12/25 00:11:44;;;;;;;;;;;;;;;26.58;22.18;96116.25;172477;28;1110;-46
2021/12/25 00:11:49;;;;;;;;;;;;;;;26.58;22.41;96112.78;172607;28;821;-47
2021/12/25 00:11:54;;;;;;;;;;;;;;;26.56;22.13;96118.25;172494;28;1270;-47
2021/12/25 00:12:00;;;;;;;;;;;;;;;26.56;22.23;96109.50;172509;28;1091;-47
2021/12/25 00:12:05;;;;;;;;;;;;;;;26.54;22.19;96108.81;172630;28;1189;-48
2021/12/25 00:12:10;;;;;;;;;;;;;;;26.52;22.50;96106.31;172497;28;1024;-47
2021/12/25 00:12:15;;;;;;;;;;;;;;;26.53;22.58;96115.91;172438;28;995;-49
2021/12/25 00:12:20;;;;;;;;;;;;;;;26.54;22.26;96112.28;172412;28;940;-47
2021/12/25 00:12:26;;;;;;;;;;;;;;;26.52;22.40;96116.06;172494;28;893;-47
2021/12/25 00:12:32;;;;;;;;;;;;;;;26.54;22.55;96114.09;172448;28;1161;-48
2021/12/25 00:12:37;;;;;;;;;;;;;;;26.53;22.42;96112.44;172418;28;754;-48
2021/12/25 00:12:42;;;;;;;;;;;;;;;26.49;22.33;96114.59;172381;28;936;-48
2021/12/25 00:12:49;;;;;;;;;;;;;;;26.55;22.40;96119.25;172530;28;750;-49
2021/12/25 00:12:55;;;;;;;;;;;;;;;26.62;22.32;96114.09;172442;28;1158;-47
2021/12/25 00:13:00;;;;;;;;;;;;;;;26.64;22.14;96109.50;172536;28;1192;-48
2021/12/25 00:13:05;;;;;;;;;;;;;;;26.65;22.32;96116.44;172499;28;1129;-48
2021/12/25 00:13:10;;;;;;;;;;;;;;;26.67;22.06;96115.28;172462;28;728;-47
2021/12/25 00:13:18;;;;;;;;;;;;;;;26.68;22.06;96110.81;172483;28;1094;-48
2021/12/25 00:13:23;;;;;;;;;;;;;;;26.67;22.07;96119.75;172367;28;846;-48
2021/12/25 00:13:28;;;;;;;;;;;;;;;26.64;22.10;96112.97;172516;28;1213;-47
2021/12/25 00:13:34;;;;;;;;;;;;;;;26.62;22.34;96111.47;172581;28;1000;-47
2021/12/25 00:13:39;;;;;;;;;;;;;;;26.62;22.20;96116.75;172423;28;1027;-46
2021/12/25 00:13:44;;;;;;;;;;;;;;;26.63;22.18;96110.50;172663;28;860;-47
2021/12/25 00:13:50;;;;;;;;;;;;;;;26.59;22.18;96117.09;172481;28;967;-49
2021/12/25 00:13:55;;;;;;;;;;;;;;;26.56;22.23;96114.78;172531;28;908;-48
2021/12/25 00:14:00;;;;;;;;;;;;;;;26.58;22.14;96113.63;172527;28;947;-49
2021/12/25 00:14:11;;;;;;;;;;;;;;;26.59;22.13;96114.44;172541;28;1184;-47
2021/12/25 00:14:16;;;;;;;;;;;;;;;26.55;22.32;96111.31;172445;28;1133;-49
2021/12/25 00:14:22;;;;;;;;;;;;;;;26.54;22.33;96108.81;172397;28;770;-47
2021/12/25 00:14:27;;;;;;;;;;;;;;;26.53;22.49;96107.16;172645;28;1113;-47
2021/12/25 00:14:32;;;;;;;;;;;;;;;26.50;22.53;96116.25;172483;28;909;-47
2021/12/25 00:14:37;;;;;;;;;;;;;;;26.51;22.34;96111.78;172501;28;1094;-47
2021/12/25 00:14:43;;;;;;;;;;;;;;;26.51;22.55;96111.78;172730;28;862;-49
2021/12/25 00:14:48;;;;;;;;;;;;;;;26.51;22.16;96109.13;172355;28;742;-47
2021/12/25 00:14:54;;;;;;;;;;;;;;;26.48;22.25;96114.75;172504;28;1268;-47
2021/12/25 00:14:59;;;;;;;;;;;;;;;26.46;22.50;96109.59;172613;28;927;-48
2021/12/25 00:15:05;;;;;;;;;;;;;;;26.41;22.45;96112.75;172513;28;1255;-46
2021/12/25 00:15:10;;;;;;;;;;;;;;;26.41;22.41;96112.75;172591;28;747;-46
2021/12/25 00:15:15;;;;;;;;;;;;;;;26.46;22.35;96106.97;172402;28;1126;-47
2021/12/25 00:15:20;;;;;;;;;;;;;;;26.52;22.52;96116.91;172378;28;916;-47
2021/12/25 00:15:26;;;;;;;;;;;;;;;26.51;22.54;96109.13;172489;28;1149;-50
2021/12/25 00:15:31;;;;;;;;;;;;;;;26.50;22.52;96118.06;171967;28;877;-48
2021/12/25 00:15:36;;;;;;;;;;;;;;;26.45;22.58;96115.88;172088;28;1622;-47
2021/12/25 00:15:42;;;;;;;;;;;;;;;26.50;22.49;96118.06;172211;28;4298;-48
2021/12/25 00:15:47;;;;;;;;;;;;;;;26.52;22.48;96119.53;172399;28;976;-48
2021/12/25 00:15:53;;;;;;;;;;;;;;;26.49;22.30;96116.41;172600;28;960;-47
2021/12/25 00:15:58;;;;;;;;;;;;;;;26.49;22.29;96116.41;172573;28;723;-47
2021/12/25 00:16:03;;;;;;;;;;;;;;;26.52;22.27;96114.25;172811;28;986;-47
2021/12/25 00:16:08;;;;;;;;;;;;;;;26.48;22.34;96117.41;173249;28;1003;-47
2021/12/25 00:16:13;;;;;;;;;;;;;;;26.51;22.54;96117.06;172004;28;1177;-48
2021/12/25 00:16:19;;;;;;;;;;;;;;;26.52;22.48;96116.06;171602;28;851;-47
2021/12/25 00:16:24;;;;;;;;;;;;;;;26.54;22.34;96125.50;171657;28;915;-48
2021/12/25 00:16:29;;;;;;;;;;;;;;;26.58;22.33;96120.72;171832;28;793;-49
2021/12/25 00:16:34;;;;;;;;;;;;;;;26.60;22.27;96121.38;171781;28;1074;-47
2021/12/25 00:16:40;;;;;;;;;;;;;;;26.60;22.27;96121.38;171904;28;991;-48
2021/12/25 00:16:45;;;;;;;;;;;;;;;26.60;22.28;96114.28;171794;28;933;-49
2021/12/25 00:16:50;;;;;;;;;;;;;;;26.61;22.39;96115.94;171724;28;1150;-47
2021/12/25 00:16:58;;;;;;;;;;;;;;;26.58;22.20;96121.56;171959;28;588;-48
2021/12/25 00:17:03;;;;;;;;;;;;;;;26.53;22.54;96113.25;171370;28;1814;-47
2021/12/25 00:17:08;;;;;;;;;;;;;;;26.54;22.35;96116.72;171699;28;960;-48
2021/12/25 00:17:13;;;;;;;;;;;;;;;26.53;22.19;96113.25;171596;28;1264;-47
2021/12/25 00:17:18;;;;;;;;;;;;;;;26.53;22.19;96123.00;171511;28;991;-47
2021/12/25 00:17:26;;;;;;;;;;;;;;;26.50;22.21;96123.34;171786;28;1153;-47
2021/12/25 00:17:32;;;;;;;;;;;;;;;26.54;22.48;96127.31;171741;28;751;-48
2021/12/25 00:17:37;;;;;;;;;;;;;;;26.57;22.42;96119.91;171904;28;1094;-47
2021/12/25 00:17:43;;;;;;;;;;;;;;;26.58;22.57;96120.72;171806;28;889;-48
2021/12/25 00:17:48;;;;;;;;;;;;;;;26.59;22.22;96122.38;171715;28;1193;-48
2021/12/25 00:17:53;;;;;;;;;;;;;;;26.60;22.31;96118.75;171902;28;941;-48
2021/12/25 00:17:59;;;;;;;;;;;;;;;26.62;22.19;96120.25;172439;28;1117;-48
2021/12/25 00:18:04;;;;;;;;;;;;;;;26.65;22.31;96119.09;172239;28;1073;-48
2021/12/25 00:18:09;;;;;;;;;;;;;;;26.63;22.11;96121.91;172586;28;1197;-47
2021/12/25 00:18:14;;;;;;;;;;;;;;;26.63;22.12;96124.56;172360;28;686;-46
2021/12/25 00:18:20;;;;;;;;;;;;;;;26.64;22.25;96123.56;172491;28;944;-48
2021/12/25 00:18:25;;;;;;;;;;;;;;;26.66;22.44;96126.03;172499;28;1279;-48
2021/12/25 00:18:30;;;;;;;;;;;;;;;26.69;21.99;96123.06;172519;28;948;-47
2021/12/25 00:18:35;;;;;;;;;;;;;;;26.71;22.09;96123.75;172516;28;1216;-48
2021/12/25 00:18:41;;;;;;;;;;;;;;;26.71;22.18;96121.09;172592;28;858;-47
2021/12/25 00:18:46;;;;;;;;;;;;;;;26.74;21.92;96125.22;172053;28;1484;-49
2021/12/25 00:18:51;;;;;;;;;;;;;;;26.73;22.22;96127.03;171584;28;1607;-48
2021/12/25 00:18:57;;;;;;;;;;;;;;;26.72;22.31;96120.09;171874;28;1517;-48
2021/12/25 00:19:02;;;;;;;;;;;;;;;26.69;22.02;96123.88;172166;28;984;-47
2021/12/25 00:19:07;;;;;;;;;;;;;;;26.68;22.28;96127.50;172017;28;933;-48
2021/12/25 00:19:12;;;;;;;;;;;;;;;26.68;21.97;96119.56;172159;28;794;-47
2021/12/25 00:19:17;;;;;;;;;;;;;;;26.64;22.10;96122.72;171905;28;1762;-48
2021/12/25 00:19:23;;;;;;;;;;;;;;;26.61;22.23;96118.56;172509;28;1173;-48
2021/12/25 00:19:28;;;;;;;;;;;;;;;26.60;22.50;96124.84;172565;28;833;-48
2021/12/25 00:19:33;;;;;;;;;;;;;;;26.60;22.09;96124.03;172589;28;1184;-48
2021/12/25 00:19:38;;;;;;;;;;;;;;;26.58;22.22;96123.38;171993;28;4334;-48
2021/12/25 00:19:43;;;;;;;;;;;;;;;26.57;22.28;96119.91;172328;28;975;-47
2021/12/25 00:19:49;;;;;;;;;;;;;;;26.59;22.34;96117.09;172657;28;818;-48
2021/12/25 00:19:54;;;;;;;;;;;;;;;26.60;22.19;96124.03;172478;28;514;-49
2021/12/25 00:19:59;;;;;;;;;;;;;;;26.61;22.17;96120.38;172485;28;1102;-47
2021/12/25 00:20:04;;;;;;;;;;;;;;;26.59;22.25;96117.09;172587;28;880;-47
2021/12/25 00:20:10;;;;;;;;;;;;;;;26.62;22.31;96122.03;172230;28;1059;-47
2021/12/25 00:20:15;;;;;;;;;;;;;;;26.58;22.46;96118.09;172407;28;806;-50
2021/12/25 00:20:20;;;;;;;;;;;;;;;26.57;22.07;96119.06;172382;28;1212;-49
2021/12/25 00:20:25;;;;;;;;;;;;;;;26.54;22.19;96120.19;172439;28;912;-47
2021/12/25 00:20:31;;;;;;;;;;;;;;;26.58;22.07;96118.91;172306;28;861;-49
2021/12/25 00:20:36;;;;;;;;;;;;;;;26.56;22.19;96123.53;172541;28;741;-49
2021/12/25 00:20:41;;;;;;;;;;;;;;;26.55;22.34;96123.69;172516;28;814;-48
2021/12/25 00:20:46;;;;;;;;;;;;;;;26.53;22.33;96121.19;172550;28;1378;-49
2021/12/25 00:20:51;;;;;;;;;;;;;;;26.50;22.36;96121.53;172422;28;824;-48
2021/12/25 00:20:57;;;;;;;;;;;;;;;26.55;22.32;96121.06;172496;28;1019;-48
2021/12/25 00:21:02;;;;;;;;;;;;;;;26.51;22.46;96122.34;172485;28;1110;-49
2021/12/25 00:21:08;;;;;;;;;;;;;;;26.49;22.47;96122.53;172444;28;1090;-49
2021/12/25 00:21:13;;;;;;;;;;;;;;;26.51;22.52;96122.34;172537;28;813;-49
2021/12/25 00:21:18;;;;;;;;;;;;;;;26.52;22.40;96124.84;172217;28;964;-48
2021/12/25 00:21:23;;;;;;;;;;;;;;;26.51;22.46;96125.00;172426;28;826;-47
2021/12/25 00:21:28;;;;;;;;;;;;;;;26.49;22.63;96124.34;172517;28;1043;-48
2021/12/25 00:21:34;;;;;;;;;;;;;;;26.49;22.50;96119.06;171892;28;676;-49
2021/12/25 00:21:39;;;;;;;;;;;;;;;26.53;22.29;96120.38;171805;28;822;-48
2021/12/25 00:21:44;;;;;;;;;;;;;;;26.50;22.20;96118.88;172380;28;1165;-49
2021/12/25 00:21:49;;;;;;;;;;;;;;;26.50;22.49;96123.34;172431;28;837;-49
2021/12/25 00:21:55;;;;;;;;;;;;;;;26.52;22.53;96121.38;172421;28;1130;-47
2021/12/25 00:22:00;;;;;;;;;;;;;;;26.54;22.21;96124.66;172571;28;961;-49
2021/12/25 00:22:05;;;;;;;;;;;;;;;26.54;22.57;96122.03;172896;28;1030;-48
2021/12/25 00:22:10;;;;;;;;;;;;;;;26.57;22.44;96119.06;172352;28;873;-47
2021/12/25 00:22:15;;;;;;;;;;;;;;;26.58;22.28;96121.56;172501;28;861;-48
2021/12/25 00:22:21;;;;;;;;;;;;;;;26.59;22.43;96122.38;171702;28;494;-48
2021/12/25 00:22:26;;;;;;;;;;;;;;;26.55;22.34;96118.41;172257;28;837;-49
2021/12/25 00:22:31;;;;;;;;;;;;;;;26.52;22.48;96124.00;172452;28;1173;-50
2021/12/25 00:22:36;;;;;;;;;;;;;;;26.55;22.54;96121.06;172556;28;862;-48
2021/12/25 00:22:42;;;;;;;;;;;;;;;26.56;22.35;96117.44;172626;28;1074;-47
2021/12/25 00:22:47;;;;;;;;;;;;;;;26.54;22.54;96119.38;172552;28;782;-49
2021/12/25 00:22:52;;;;;;;;;;;;;;;26.57;22.08;96121.72;172531;28;1137;-49
2021/12/25 00:22:59;;;;;;;;;;;;;;;26.53;22.53;96117.72;172430;28;865;-48
2021/12/25 00:23:06;;;;;;;;;;;;;;;26.47;22.35;96118.41;172767;28;1005;-48
2021/12/25 00:23:11;;;;;;;;;;;;;;;26.54;22.35;96129.94;172639;28;818;-48
2021/12/25 00:23:17;;;;;;;;;;;;;;;26.52;22.26;96118.72;172442;28;1114;-49
2021/12/25 00:23:22;;;;;;;;;;;;;;;26.52;22.56;96124.84;172448;28;759;-48
2021/12/25 00:23:27;;;;;;;;;;;;;;;26.53;22.27;96117.72;172538;28;1165;-47
2021/12/25 00:23:33;;;;;;;;;;;;;;;26.56;22.42;96120.06;172458;28;810;-48
2021/12/25 00:23:38;;;;;;;;;;;;;;;26.58;22.32;96120.72;172110;28;4223;-48
2021/12/25 00:23:44;;;;;;;;;;;;;;;26.58;22.31;96124.19;172538;28;814;-47
2021/12/25 00:23:51;;;;;;;;;;;;;;;26.61;22.37;96123.84;172051;28;857;-48
2021/12/25 00:23:56;;;;;;;;;;;;;;;26.63;22.32;96121.91;171961;28;842;-48
2021/12/25 00:24:01;;;;;;;;;;;;;;;26.65;22.22;96119.91;172285;28;1125;-48
2021/12/25 00:24:07;;;;;;;;;;;;;;;26.65;22.17;96121.72;172558;28;866;-49
2021/12/25 00:24:12;;;;;;;;;;;;;;;26.65;22.20;96124.38;172576;28;845;-48
2021/12/25 00:24:17;;;;;;;;;;;;;;;26.64;22.32;96117.44;172199;28;1137;-48
2021/12/25 00:24:22;;;;;;;;;;;;;;;26.63;22.25;96113.16;172478;28;829;-48
2021/12/25 00:24:27;;;;;;;;;;;;;;;26.64;22.01;96122.72;172467;28;1248;-48
2021/12/25 00:24:33;;;;;;;;;;;;;;;26.66;22.04;96118.09;172349;28;1977;-48
2021/12/25 00:24:43;;;;;;;;;;;;;;;26.66;22.07;96116.28;172549;28;1145;-48
2021/12/25 00:24:48;;;;;;;;;;;;;;;26.63;22.38;96118.44;172432;28;873;-48
2021/12/25 00:24:53;;;;;;;;;;;;;;;26.60;22.27;96124.84;172541;28;1264;-48
2021/12/25 00:24:58;;;;;;;;;;;;;;;26.59;22.14;96119.72;172499;28;896;-48
2021/12/25 00:25:04;;;;;;;;;;;;;;;26.56;22.22;96112.13;172238;28;1173;-48
2021/12/25 00:25:09;;;;;;;;;;;;;;;26.53;22.34;96117.72;172531;28;821;-49
2021/12/25 00:25:15;;;;;;;;;;;;;;;26.53;22.24;96109.78;172122;28;998;-49
2021/12/25 00:25:21;;;;;;;;;;;;;;;26.55;22.25;96115.78;172486;28;751;-50
2021/12/25 00:25:27;;;;;;;;;;;;;;;26.55;22.33;96113.94;172862;28;1118;-48
2021/12/25 00:25:36;;;;;;;;;;;;;;;26.54;22.23;96116.72;173198;28;880;-49
2021/12/25 00:25:46;;;;;;;;;;;;;;;26.58;22.29;96115.44;173155;28;952;-47
2021/12/25 00:26:12;;;;;;;;;;;;;;;26.59;22.38;96123.19;173131;28;983;-47
2021/12/25 00:26:36;;;;;;;;;;;;;;;26.61;22.37;96117.75;173075;28;857;-47
2021/12/25 00:26:57;;;;;;;;;;;;;;;26.58;22.40;96116.25;173213;28;1175;-48
2021/12/25 00:27:21;;;;;;;;;;;;;;;26.56;22.20;96115.59;172364;28;1212;-49
2021/12/25 00:28:05;;;;;;;;;;;;;;;26.52;22.40;96113.44;172500;28;1101;-48
2021/12/25 00:29:15;;;;;;;;;;;;;;;26.47;22.57;96107.81;172712;28;1223;-49
2021/12/25 00:30:12;;;;;;;;;;;;;;;26.47;22.34;96113.09;172487;28;876;-48
2021/12/25 00:30:15;;;;;;;;;;;;;;;26.47;22.70;96115.75;172547;28;1054;-49
2021/12/25 00:30:29;;;;;;;;;;;;;;;26.46;22.54;96111.44;172273;28;832;-48
2021/12/25 00:30:44;;;;;;;;;;;;;;;26.41;22.65;96111.94;172303;28;1271;-49
2021/12/25 00:31:32;;;;;;;;;;;;;;;26.55;22.44;96113.94;172589;28;675;-49
2021/12/25 00:31:51;;;;;;;;;;;;;;;26.54;22.34;96122.03;171795;28;912;-48
2021/12/25 00:32:12;;;;;;;;;;;;;;;26.47;22.41;96126.31;172057;28;4204;-48
2021/12/25 00:32:42;;;;;;;;;;;;;;;26.48;22.43;96112.94;172661;28;889;-47
2021/12/25 00:33:02;;;;;;;;;;;;;;;26.44;22.36;96115.06;172493;28;918;-48
2021/12/25 00:33:31;;;;;;;;;;;;;;;26.45;22.55;96118.53;172604;28;939;-48
2021/12/25 00:33:56;;;;;;;;;;;;;;;26.38;22.37;96120.97;172594;28;932;-48
2021/12/25 00:34:02;;;;;;;;;;;;;;;26.48;22.63;96122.69;172758;28;1001;-47
2021/12/25 00:34:07;;;;;;;;;;;;;;;26.48;22.59;96112.94;171946;28;933;-47
2021/12/25 00:34:14;;;;;;;;;;;;;;;26.48;22.71;96112.13;171891;28;876;-48
2021/12/25 00:34:23;;;;;;;;;;;;;;;26.50;22.24;96121.53;171804;28;971;-48
2021/12/25 00:34:28;;;;;;;;;;;;;;;26.52;22.52;96119.53;172155;28;1145;-48
2021/12/25 00:34:33;;;;;;;;;;;;;;;26.54;22.36;96114.91;172574;28;829;-48
2021/12/25 00:34:39;;;;;;;;;;;;;;;26.55;22.12;96119.25;172562;28;1121;-47
2021/12/25 00:34:44;;;;;;;;;;;;;;;26.56;22.46;96120.88;172518;28;1004;-48
2021/12/25 00:34:49;;;;;;;;;;;;;;;26.58;22.29;96123.38;172484;28;943;-49
2021/12/25 00:34:54;;;;;;;;;;;;;;;26.55;22.40;96121.88;172560;28;829;-48
2021/12/25 00:34:59;;;;;;;;;;;;;;;26.51;22.23;96119.72;172610;28;1028;-48
2021/12/25 00:35:05;;;;;;;;;;;;;;;26.51;22.22;96120.53;172724;28;1179;-48
2021/12/25 00:35:10;;;;;;;;;;;;;;;26.51;22.22;96120.53;172563;28;864;-48
2021/12/25 00:35:15;;;;;;;;;;;;;;;26.48;22.54;96115.59;172445;28;1125;-47
2021/12/25 00:35:20;;;;;;;;;;;;;;;26.52;22.27;96116.06;172522;28;1059;-47
2021/12/25 00:35:26;;;;;;;;;;;;;;;26.49;22.15;96116.41;172406;28;1042;-48
2021/12/25 00:35:31;;;;;;;;;;;;;;;26.53;22.36;96130.94;171755;28;1495;-47
2021/12/25 00:35:36;;;;;;;;;;;;;;;26.53;22.36;96123.00;172405;28;951;-47
2021/12/25 00:35:41;;;;;;;;;;;;;;;26.53;22.28;96120.38;171390;28;4253;-47
2021/12/25 00:35:46;;;;;;;;;;;;;;;26.51;22.16;96117.91;172479;28;1458;-48
2021/12/25 00:35:52;;;;;;;;;;;;;;;26.49;22.38;96126.97;172309;28;1091;-48
2021/12/25 00:35:57;;;;;;;;;;;;;;;26.51;22.50;96120.53;172601;28;813;-49
2021/12/25 00:36:02;;;;;;;;;;;;;;;26.53;22.50;96120.38;172530;28;1141;-49
2021/12/25 00:36:08;;;;;;;;;;;;;;;26.52;22.54;96122.19;172488;28;992;-48
2021/12/25 00:36:13;;;;;;;;;;;;;;;26.51;22.27;96127.66;172440;28;1157;-48